sensor_id;sensor_type;location;lat;lon;timestamp;P1;durP1;ratioP1;P2;durP2;ratioP2
25687;SDS011;17407;51.120;3.702;2023-11-21T00:00:21;51.38;;;26.88;;
25687;SDS011;17407;51.120;3.702;2023-11-21T00:02:46;44.65;;;24.83;;
25687;SDS011;17407;51.120;3.702;2023-11-21T00:05:12;46.20;;;24.42;;
25687;SDS011;17407;51.120;3.702;2023-11-21T00:07:39;46.42;;;24.48;;
25687;SDS011;17407;51.120;3.702;2023-11-21T00:10:06;47.78;;;26.70;;
25687;SDS011;17407;51.120;3.702;2023-11-21T00:12:33;45.97;;;24.63;;
25687;SDS011;17407;51.120;3.702;2023-11-21T00:14:59;48.38;;;23.92;;
25687;SDS011;17407;51.120;3.702;2023-11-21T00:17:27;53.78;;;25.83;;
25687;SDS011;17407;51.120;3.702;2023-11-21T00:19:52;43.42;;;25.05;;
25687;SDS011;17407;51.120;3.702;2023-11-21T00:22:18;46.22;;;25.33;;
25687;SDS011;17407;51.120;3.702;2023-11-21T00:24:45;48.42;;;25.75;;
25687;SDS011;17407;51.120;3.702;2023-11-21T00:27:11;52.17;;;25.55;;
25687;SDS011;17407;51.120;3.702;2023-11-21T00:29:37;45.05;;;23.25;;
25687;SDS011;17407;51.120;3.702;2023-11-21T00:32:04;54.17;;;25.95;;
25687;SDS011;17407;51.120;3.702;2023-11-21T00:34:30;40.25;;;23.45;;
25687;SDS011;17407;51.120;3.702;2023-11-21T00:36:56;47.42;;;23.35;;
25687;SDS011;17407;51.120;3.702;2023-11-21T00:39:22;49.55;;;25.42;;
25687;SDS011;17407;51.120;3.702;2023-11-21T00:41:48;48.80;;;24.15;;
25687;SDS011;17407;51.120;3.702;2023-11-21T00:44:14;43.38;;;22.63;;
25687;SDS011;17407;51.120;3.702;2023-11-21T00:46:41;45.60;;;21.98;;
25687;SDS011;17407;51.120;3.702;2023-11-21T00:49:06;39.17;;;22.73;;
25687;SDS011;17407;51.120;3.702;2023-11-21T00:51:32;36.92;;;22.95;;
25687;SDS011;17407;51.120;3.702;2023-11-21T00:53:58;47.50;;;23.38;;
25687;SDS011;17407;51.120;3.702;2023-11-21T00:56:24;38.20;;;23.63;;
25687;SDS011;17407;51.120;3.702;2023-11-21T00:58:50;43.28;;;25.00;;
25687;SDS011;17407;51.120;3.702;2023-11-21T01:01:17;49.42;;;24.67;;
25687;SDS011;17407;51.120;3.702;2023-11-21T01:03:45;43.38;;;23.13;;
25687;SDS011;17407;51.120;3.702;2023-11-21T01:06:11;44.08;;;24.35;;
25687;SDS011;17407;51.120;3.702;2023-11-21T01:08:37;33.35;;;22.30;;
25687;SDS011;17407;51.120;3.702;2023-11-21T01:11:03;38.92;;;22.10;;
25687;SDS011;17407;51.120;3.702;2023-11-21T01:13:29;40.03;;;21.15;;
25687;SDS011;17407;51.120;3.702;2023-11-21T01:15:55;35.53;;;20.23;;
25687;SDS011;17407;51.120;3.702;2023-11-21T01:18:21;43.03;;;21.77;;
25687;SDS011;17407;51.120;3.702;2023-11-21T01:20:47;40.40;;;21.23;;
25687;SDS011;17407;51.120;3.702;2023-11-21T01:23:13;49.08;;;21.90;;
25687;SDS011;17407;51.120;3.702;2023-11-21T01:25:39;39.22;;;21.02;;
25687;SDS011;17407;51.120;3.702;2023-11-21T01:28:05;44.17;;;21.92;;
25687;SDS011;17407;51.120;3.702;2023-11-21T01:30:31;38.33;;;20.95;;
25687;SDS011;17407;51.120;3.702;2023-11-21T01:32:57;36.85;;;20.83;;
25687;SDS011;17407;51.120;3.702;2023-11-21T01:35:23;38.95;;;21.02;;
25687;SDS011;17407;51.120;3.702;2023-11-21T01:37:49;40.45;;;20.13;;
25687;SDS011;17407;51.120;3.702;2023-11-21T01:40:14;53.97;;;22.63;;
25687;SDS011;17407;51.120;3.702;2023-11-21T01:42:40;40.58;;;19.98;;
25687;SDS011;17407;51.120;3.702;2023-11-21T01:45:08;37.80;;;21.10;;
25687;SDS011;17407;51.120;3.702;2023-11-21T01:47:35;43.20;;;21.67;;
25687;SDS011;17407;51.120;3.702;2023-11-21T01:50:02;37.13;;;20.60;;
25687;SDS011;17407;51.120;3.702;2023-11-21T01:52:31;33.05;;;18.45;;
25687;SDS011;17407;51.120;3.702;2023-11-21T01:54:58;26.73;;;17.80;;
25687;SDS011;17407;51.120;3.702;2023-11-21T01:57:25;38.22;;;20.92;;
25687;SDS011;17407;51.120;3.702;2023-11-21T01:59:51;33.35;;;18.75;;
25687;SDS011;17407;51.120;3.702;2023-11-21T02:02:19;24.60;;;17.13;;
25687;SDS011;17407;51.120;3.702;2023-11-21T02:04:44;39.83;;;19.58;;
25687;SDS011;17407;51.120;3.702;2023-11-21T02:07:10;36.17;;;19.23;;
25687;SDS011;17407;51.120;3.702;2023-11-21T02:09:36;36.03;;;19.92;;
25687;SDS011;17407;51.120;3.702;2023-11-21T02:12:07;34.13;;;19.00;;
25687;SDS011;17407;51.120;3.702;2023-11-21T02:14:35;37.00;;;20.17;;
25687;SDS011;17407;51.120;3.702;2023-11-21T02:17:01;46.65;;;19.48;;
25687;SDS011;17407;51.120;3.702;2023-11-21T02:19:28;35.05;;;19.00;;
25687;SDS011;17407;51.120;3.702;2023-11-21T02:21:56;41.45;;;19.52;;
25687;SDS011;17407;51.120;3.702;2023-11-21T02:24:31;34.63;;;18.70;;
25687;SDS011;17407;51.120;3.702;2023-11-21T02:26:57;40.40;;;18.77;;
25687;SDS011;17407;51.120;3.702;2023-11-21T02:29:23;34.08;;;19.10;;
25687;SDS011;17407;51.120;3.702;2023-11-21T02:31:53;32.03;;;18.17;;
25687;SDS011;17407;51.120;3.702;2023-11-21T02:34:20;46.60;;;19.25;;
25687;SDS011;17407;51.120;3.702;2023-11-21T02:36:46;38.47;;;18.27;;
25687;SDS011;17407;51.120;3.702;2023-11-21T02:39:16;39.28;;;20.00;;
25687;SDS011;17407;51.120;3.702;2023-11-21T02:41:42;36.20;;;19.90;;
25687;SDS011;17407;51.120;3.702;2023-11-21T02:44:09;38.47;;;19.70;;
25687;SDS011;17407;51.120;3.702;2023-11-21T02:46:35;33.28;;;19.08;;
25687;SDS011;17407;51.120;3.702;2023-11-21T02:49:02;43.33;;;19.73;;
25687;SDS011;17407;51.120;3.702;2023-11-21T02:51:29;35.90;;;17.92;;
25687;SDS011;17407;51.120;3.702;2023-11-21T02:53:55;38.47;;;20.77;;
25687;SDS011;17407;51.120;3.702;2023-11-21T02:56:25;34.15;;;19.05;;
25687;SDS011;17407;51.120;3.702;2023-11-21T02:58:51;40.67;;;18.80;;
25687;SDS011;17407;51.120;3.702;2023-11-21T03:01:18;33.50;;;19.08;;
25687;SDS011;17407;51.120;3.702;2023-11-21T03:03:43;35.25;;;19.27;;
25687;SDS011;17407;51.120;3.702;2023-11-21T03:06:09;32.38;;;17.80;;
25687;SDS011;17407;51.120;3.702;2023-11-21T03:08:35;34.53;;;18.30;;
25687;SDS011;17407;51.120;3.702;2023-11-21T03:11:01;35.72;;;17.55;;
25687;SDS011;17407;51.120;3.702;2023-11-21T03:13:29;31.67;;;16.58;;
25687;SDS011;17407;51.120;3.702;2023-11-21T03:15:55;30.42;;;16.02;;
25687;SDS011;17407;51.120;3.702;2023-11-21T03:18:20;37.80;;;17.88;;
25687;SDS011;17407;51.120;3.702;2023-11-21T03:20:50;29.90;;;16.23;;
25687;SDS011;17407;51.120;3.702;2023-11-21T03:23:19;36.70;;;16.67;;
25687;SDS011;17407;51.120;3.702;2023-11-21T03:25:44;32.85;;;16.58;;
25687;SDS011;17407;51.120;3.702;2023-11-21T03:28:10;30.48;;;15.48;;
25687;SDS011;17407;51.120;3.702;2023-11-21T03:30:36;30.05;;;16.02;;
25687;SDS011;17407;51.120;3.702;2023-11-21T03:33:01;34.95;;;16.73;;
25687;SDS011;17407;51.120;3.702;2023-11-21T03:35:27;30.23;;;16.25;;
25687;SDS011;17407;51.120;3.702;2023-11-21T03:37:53;28.10;;;15.10;;
25687;SDS011;17407;51.120;3.702;2023-11-21T03:40:19;36.05;;;16.98;;
25687;SDS011;17407;51.120;3.702;2023-11-21T03:42:46;29.42;;;16.42;;
25687;SDS011;17407;51.120;3.702;2023-11-21T03:45:12;33.03;;;17.02;;
25687;SDS011;17407;51.120;3.702;2023-11-21T03:47:39;36.58;;;17.83;;
25687;SDS011;17407;51.120;3.702;2023-11-21T03:50:07;36.47;;;18.08;;
25687;SDS011;17407;51.120;3.702;2023-11-21T03:52:36;45.08;;;18.85;;
25687;SDS011;17407;51.120;3.702;2023-11-21T03:55:02;38.40;;;17.27;;
25687;SDS011;17407;51.120;3.702;2023-11-21T03:57:28;31.42;;;16.08;;
25687;SDS011;17407;51.120;3.702;2023-11-21T03:59:53;30.15;;;15.90;;
25687;SDS011;17407;51.120;3.702;2023-11-21T04:02:19;35.95;;;17.33;;
25687;SDS011;17407;51.120;3.702;2023-11-21T04:04:45;31.35;;;17.25;;
25687;SDS011;17407;51.120;3.702;2023-11-21T04:07:12;35.42;;;16.85;;
25687;SDS011;17407;51.120;3.702;2023-11-21T04:09:38;35.30;;;18.00;;
25687;SDS011;17407;51.120;3.702;2023-11-21T04:12:04;50.08;;;19.08;;
25687;SDS011;17407;51.120;3.702;2023-11-21T04:14:30;39.17;;;19.30;;
25687;SDS011;17407;51.120;3.702;2023-11-21T04:16:56;40.97;;;18.35;;
25687;SDS011;17407;51.120;3.702;2023-11-21T04:19:22;32.65;;;17.38;;
25687;SDS011;17407;51.120;3.702;2023-11-21T04:21:48;30.95;;;16.30;;
25687;SDS011;17407;51.120;3.702;2023-11-21T04:24:14;35.20;;;18.15;;
25687;SDS011;17407;51.120;3.702;2023-11-21T04:26:39;29.73;;;17.08;;
25687;SDS011;17407;51.120;3.702;2023-11-21T04:29:05;32.35;;;17.25;;
25687;SDS011;17407;51.120;3.702;2023-11-21T04:31:31;34.03;;;17.10;;
25687;SDS011;17407;51.120;3.702;2023-11-21T04:33:57;33.47;;;17.23;;
25687;SDS011;17407;51.120;3.702;2023-11-21T04:36:22;36.50;;;21.10;;
25687;SDS011;17407;51.120;3.702;2023-11-21T04:38:48;42.70;;;23.15;;
25687;SDS011;17407;51.120;3.702;2023-11-21T04:41:14;39.80;;;24.20;;
25687;SDS011;17407;51.120;3.702;2023-11-21T04:43:39;35.50;;;21.63;;
25687;SDS011;17407;51.120;3.702;2023-11-21T04:46:05;32.88;;;21.10;;
25687;SDS011;17407;51.120;3.702;2023-11-21T04:48:31;30.77;;;20.02;;
25687;SDS011;17407;51.120;3.702;2023-11-21T04:50:58;40.88;;;23.92;;
25687;SDS011;17407;51.120;3.702;2023-11-21T04:53:23;39.83;;;20.52;;
25687;SDS011;17407;51.120;3.702;2023-11-21T04:55:49;38.35;;;20.27;;
25687;SDS011;17407;51.120;3.702;2023-11-21T04:58:15;35.72;;;21.33;;
25687;SDS011;17407;51.120;3.702;2023-11-21T05:00:41;41.70;;;21.23;;
25687;SDS011;17407;51.120;3.702;2023-11-21T05:03:06;43.30;;;25.98;;
25687;SDS011;17407;51.120;3.702;2023-11-21T05:05:32;47.15;;;27.40;;
25687;SDS011;17407;51.120;3.702;2023-11-21T05:08:01;52.00;;;27.08;;
25687;SDS011;17407;51.120;3.702;2023-11-21T05:10:27;56.97;;;29.35;;
25687;SDS011;17407;51.120;3.702;2023-11-21T05:12:54;42.97;;;24.70;;
25687;SDS011;17407;51.120;3.702;2023-11-21T05:15:20;76.22;;;40.97;;
25687;SDS011;17407;51.120;3.702;2023-11-21T05:17:46;79.90;;;48.53;;
25687;SDS011;17407;51.120;3.702;2023-11-21T05:20:15;64.40;;;35.67;;
25687;SDS011;17407;51.120;3.702;2023-11-21T05:25:14;82.63;;;50.67;;
25687;SDS011;17407;51.120;3.702;2023-11-21T05:27:40;80.55;;;43.15;;
25687;SDS011;17407;51.120;3.702;2023-11-21T05:30:06;65.50;;;33.58;;
25687;SDS011;17407;51.120;3.702;2023-11-21T05:32:34;56.85;;;23.27;;
25687;SDS011;17407;51.120;3.702;2023-11-21T05:34:59;75.65;;;25.13;;
25687;SDS011;17407;51.120;3.702;2023-11-21T05:37:26;106.88;;;25.83;;
25687;SDS011;17407;51.120;3.702;2023-11-21T05:39:52;86.50;;;29.50;;
25687;SDS011;17407;51.120;3.702;2023-11-21T05:42:21;64.82;;;29.92;;
25687;SDS011;17407;51.120;3.702;2023-11-21T05:44:48;74.32;;;37.35;;
25687;SDS011;17407;51.120;3.702;2023-11-21T05:47:14;74.15;;;34.72;;
25687;SDS011;17407;51.120;3.702;2023-11-21T05:49:40;73.78;;;33.95;;
25687;SDS011;17407;51.120;3.702;2023-11-21T05:52:05;63.95;;;31.63;;
25687;SDS011;17407;51.120;3.702;2023-11-21T05:54:32;71.03;;;35.65;;
25687;SDS011;17407;51.120;3.702;2023-11-21T05:56:58;80.35;;;36.78;;
25687;SDS011;17407;51.120;3.702;2023-11-21T05:59:24;75.15;;;33.83;;
25687;SDS011;17407;51.120;3.702;2023-11-21T06:01:49;90.07;;;29.30;;
25687;SDS011;17407;51.120;3.702;2023-11-21T06:04:15;88.47;;;32.15;;
25687;SDS011;17407;51.120;3.702;2023-11-21T06:06:41;73.45;;;27.52;;
25687;SDS011;17407;51.120;3.702;2023-11-21T06:09:06;76.97;;;26.10;;
25687;SDS011;17407;51.120;3.702;2023-11-21T06:11:34;58.85;;;24.92;;
25687;SDS011;17407;51.120;3.702;2023-11-21T06:14:00;84.82;;;26.38;;
25687;SDS011;17407;51.120;3.702;2023-11-21T06:16:27;104.03;;;27.25;;
25687;SDS011;17407;51.120;3.702;2023-11-21T06:18:53;72.93;;;24.65;;
25687;SDS011;17407;51.120;3.702;2023-11-21T06:21:19;66.88;;;24.55;;
25687;SDS011;17407;51.120;3.702;2023-11-21T06:23:44;91.30;;;28.23;;
25687;SDS011;17407;51.120;3.702;2023-11-21T06:26:10;129.95;;;28.00;;
25687;SDS011;17407;51.120;3.702;2023-11-21T06:28:36;106.35;;;27.88;;
25687;SDS011;17407;51.120;3.702;2023-11-21T06:31:02;208.02;;;29.67;;
25687;SDS011;17407;51.120;3.702;2023-11-21T06:33:33;78.47;;;24.88;;
25687;SDS011;17407;51.120;3.702;2023-11-21T06:35:59;231.43;;;29.35;;
25687;SDS011;17407;51.120;3.702;2023-11-21T06:38:27;97.53;;;24.77;;
25687;SDS011;17407;51.120;3.702;2023-11-21T06:40:55;137.27;;;26.05;;
25687;SDS011;17407;51.120;3.702;2023-11-21T06:43:22;171.05;;;29.08;;
25687;SDS011;17407;51.120;3.702;2023-11-21T06:45:47;256.90;;;30.50;;
25687;SDS011;17407;51.120;3.702;2023-11-21T06:48:14;146.10;;;26.70;;
25687;SDS011;17407;51.120;3.702;2023-11-21T06:50:40;75.53;;;23.63;;
25687;SDS011;17407;51.120;3.702;2023-11-21T06:53:06;114.03;;;26.17;;
25687;SDS011;17407;51.120;3.702;2023-11-21T06:55:33;220.88;;;29.35;;
25687;SDS011;17407;51.120;3.702;2023-11-21T06:57:59;177.23;;;28.23;;
25687;SDS011;17407;51.120;3.702;2023-11-21T07:00:25;131.75;;;27.00;;
25687;SDS011;17407;51.120;3.702;2023-11-21T07:02:53;108.22;;;24.70;;
25687;SDS011;17407;51.120;3.702;2023-11-21T07:05:20;104.55;;;24.25;;
25687;SDS011;17407;51.120;3.702;2023-11-21T07:07:46;77.18;;;24.48;;
25687;SDS011;17407;51.120;3.702;2023-11-21T07:10:13;78.07;;;23.90;;
25687;SDS011;17407;51.120;3.702;2023-11-21T07:12:39;49.17;;;22.15;;
25687;SDS011;17407;51.120;3.702;2023-11-21T07:15:05;62.20;;;22.23;;
25687;SDS011;17407;51.120;3.702;2023-11-21T07:17:34;43.80;;;20.35;;
25687;SDS011;17407;51.120;3.702;2023-11-21T07:20:00;42.75;;;19.13;;
25687;SDS011;17407;51.120;3.702;2023-11-21T07:22:26;46.97;;;19.80;;
25687;SDS011;17407;51.120;3.702;2023-11-21T07:24:52;42.40;;;19.00;;
25687;SDS011;17407;51.120;3.702;2023-11-21T07:27:18;45.25;;;19.90;;
25687;SDS011;17407;51.120;3.702;2023-11-21T07:29:44;42.67;;;19.48;;
25687;SDS011;17407;51.120;3.702;2023-11-21T07:32:10;49.75;;;20.02;;
25687;SDS011;17407;51.120;3.702;2023-11-21T07:34:36;45.13;;;19.30;;
25687;SDS011;17407;51.120;3.702;2023-11-21T07:37:02;48.08;;;18.92;;
25687;SDS011;17407;51.120;3.702;2023-11-21T07:39:28;39.28;;;17.65;;
25687;SDS011;17407;51.120;3.702;2023-11-21T07:41:55;44.22;;;18.65;;
25687;SDS011;17407;51.120;3.702;2023-11-21T07:44:21;36.85;;;16.73;;
25687;SDS011;17407;51.120;3.702;2023-11-21T07:46:47;44.47;;;18.52;;
25687;SDS011;17407;51.120;3.702;2023-11-21T07:49:15;41.90;;;17.58;;
25687;SDS011;17407;51.120;3.702;2023-11-21T07:51:45;43.97;;;17.58;;
25687;SDS011;17407;51.120;3.702;2023-11-21T07:54:11;37.80;;;17.27;;
25687;SDS011;17407;51.120;3.702;2023-11-21T07:56:37;35.55;;;17.13;;
25687;SDS011;17407;51.120;3.702;2023-11-21T07:59:02;34.90;;;16.40;;
25687;SDS011;17407;51.120;3.702;2023-11-21T08:01:29;37.00;;;16.27;;
25687;SDS011;17407;51.120;3.702;2023-11-21T08:03:55;38.72;;;16.23;;
25687;SDS011;17407;51.120;3.702;2023-11-21T08:06:24;25.70;;;13.85;;
25687;SDS011;17407;51.120;3.702;2023-11-21T08:08:50;25.60;;;13.75;;
25687;SDS011;17407;51.120;3.702;2023-11-21T08:11:16;28.55;;;14.77;;
25687;SDS011;17407;51.120;3.702;2023-11-21T08:13:42;31.08;;;14.55;;
25687;SDS011;17407;51.120;3.702;2023-11-21T08:16:07;30.02;;;14.70;;
25687;SDS011;17407;51.120;3.702;2023-11-21T08:18:33;32.70;;;16.88;;
25687;SDS011;17407;51.120;3.702;2023-11-21T08:20:59;29.48;;;15.02;;
25687;SDS011;17407;51.120;3.702;2023-11-21T08:23:25;32.15;;;15.68;;
25687;SDS011;17407;51.120;3.702;2023-11-21T08:25:52;30.33;;;15.57;;
25687;SDS011;17407;51.120;3.702;2023-11-21T08:28:19;27.50;;;14.93;;
25687;SDS011;17407;51.120;3.702;2023-11-21T08:30:51;30.02;;;14.60;;
25687;SDS011;17407;51.120;3.702;2023-11-21T08:33:17;24.75;;;14.38;;
25687;SDS011;17407;51.120;3.702;2023-11-21T08:35:43;26.67;;;14.38;;
25687;SDS011;17407;51.120;3.702;2023-11-21T08:38:10;31.25;;;14.65;;
25687;SDS011;17407;51.120;3.702;2023-11-21T08:40:37;28.55;;;14.38;;
25687;SDS011;17407;51.120;3.702;2023-11-21T08:43:03;23.73;;;14.07;;
25687;SDS011;17407;51.120;3.702;2023-11-21T08:45:32;23.13;;;13.43;;
25687;SDS011;17407;51.120;3.702;2023-11-21T08:47:59;17.63;;;11.98;;
25687;SDS011;17407;51.120;3.702;2023-11-21T08:50:28;18.33;;;10.65;;
25687;SDS011;17407;51.120;3.702;2023-11-21T08:52:53;18.98;;;9.63;;
25687;SDS011;17407;51.120;3.702;2023-11-21T08:55:19;13.35;;;8.70;;
25687;SDS011;17407;51.120;3.702;2023-11-21T08:57:45;13.68;;;8.30;;
25687;SDS011;17407;51.120;3.702;2023-11-21T09:00:14;12.82;;;7.78;;
25687;SDS011;17407;51.120;3.702;2023-11-21T09:02:43;14.70;;;7.35;;
25687;SDS011;17407;51.120;3.702;2023-11-21T09:05:10;8.10;;;6.03;;
25687;SDS011;17407;51.120;3.702;2023-11-21T09:07:36;11.63;;;7.00;;
25687;SDS011;17407;51.120;3.702;2023-11-21T09:10:03;10.10;;;5.95;;
25687;SDS011;17407;51.120;3.702;2023-11-21T09:12:32;11.10;;;6.63;;
25687;SDS011;17407;51.120;3.702;2023-11-21T09:15:00;7.15;;;5.13;;
25687;SDS011;17407;51.120;3.702;2023-11-21T09:17:29;10.52;;;5.28;;
25687;SDS011;17407;51.120;3.702;2023-11-21T09:19:55;11.65;;;5.47;;
25687;SDS011;17407;51.120;3.702;2023-11-21T09:22:22;5.90;;;4.47;;
25687;SDS011;17407;51.120;3.702;2023-11-21T09:24:49;11.50;;;4.63;;
25687;SDS011;17407;51.120;3.702;2023-11-21T09:27:16;6.95;;;4.15;;
25687;SDS011;17407;51.120;3.702;2023-11-21T09:29:42;8.60;;;3.92;;
25687;SDS011;17407;51.120;3.702;2023-11-21T09:32:08;5.90;;;4.35;;
25687;SDS011;17407;51.120;3.702;2023-11-21T09:34:37;4.93;;;3.80;;
25687;SDS011;17407;51.120;3.702;2023-11-21T09:37:04;6.82;;;4.55;;
25687;SDS011;17407;51.120;3.702;2023-11-21T09:39:31;8.15;;;4.32;;
25687;SDS011;17407;51.120;3.702;2023-11-21T09:42:00;7.93;;;4.30;;
25687;SDS011;17407;51.120;3.702;2023-11-21T09:44:44;9.52;;;4.80;;
25687;SDS011;17407;51.120;3.702;2023-11-21T09:47:20;10.63;;;4.53;;
25687;SDS011;17407;51.120;3.702;2023-11-21T09:49:47;7.35;;;4.55;;
25687;SDS011;17407;51.120;3.702;2023-11-21T09:52:26;8.52;;;4.40;;
25687;SDS011;17407;51.120;3.702;2023-11-21T09:54:53;7.47;;;4.80;;
25687;SDS011;17407;51.120;3.702;2023-11-21T09:57:22;12.02;;;4.55;;
25687;SDS011;17407;51.120;3.702;2023-11-21T09:59:51;10.43;;;4.28;;
25687;SDS011;17407;51.120;3.702;2023-11-21T10:02:22;12.32;;;4.65;;
25687;SDS011;17407;51.120;3.702;2023-11-21T10:04:51;16.30;;;4.28;;
25687;SDS011;17407;51.120;3.702;2023-11-21T10:07:17;11.13;;;4.72;;
25687;SDS011;17407;51.120;3.702;2023-11-21T10:09:45;9.80;;;3.55;;
25687;SDS011;17407;51.120;3.702;2023-11-21T10:12:12;11.25;;;4.80;;
25687;SDS011;17407;51.120;3.702;2023-11-21T10:14:42;8.18;;;4.18;;
25687;SDS011;17407;51.120;3.702;2023-11-21T10:17:10;12.23;;;4.80;;
25687;SDS011;17407;51.120;3.702;2023-11-21T10:19:41;12.88;;;4.82;;
25687;SDS011;17407;51.120;3.702;2023-11-21T10:22:07;9.45;;;4.32;;
25687;SDS011;17407;51.120;3.702;2023-11-21T10:24:33;10.88;;;4.80;;
25687;SDS011;17407;51.120;3.702;2023-11-21T10:27:00;11.70;;;4.93;;
25687;SDS011;17407;51.120;3.702;2023-11-21T10:29:28;11.18;;;4.72;;
25687;SDS011;17407;51.120;3.702;2023-11-21T10:31:55;15.05;;;4.68;;
25687;SDS011;17407;51.120;3.702;2023-11-21T10:34:23;12.32;;;4.57;;
25687;SDS011;17407;51.120;3.702;2023-11-21T10:36:49;14.43;;;5.38;;
25687;SDS011;17407;51.120;3.702;2023-11-21T10:39:21;10.18;;;4.50;;
25687;SDS011;17407;51.120;3.702;2023-11-21T10:41:49;10.05;;;3.85;;
25687;SDS011;17407;51.120;3.702;2023-11-21T10:44:16;11.10;;;4.35;;
25687;SDS011;17407;51.120;3.702;2023-11-21T10:46:49;14.68;;;3.83;;
25687;SDS011;17407;51.120;3.702;2023-11-21T10:49:22;9.63;;;3.53;;
25687;SDS011;17407;51.120;3.702;2023-11-21T10:51:50;11.00;;;3.58;;
25687;SDS011;17407;51.120;3.702;2023-11-21T10:54:18;13.30;;;3.45;;
25687;SDS011;17407;51.120;3.702;2023-11-21T10:56:53;12.63;;;3.35;;
25687;SDS011;17407;51.120;3.702;2023-11-21T10:59:22;8.18;;;3.35;;
25687;SDS011;17407;51.120;3.702;2023-11-21T11:01:50;12.02;;;3.40;;
25687;SDS011;17407;51.120;3.702;2023-11-21T11:04:20;10.40;;;3.55;;
25687;SDS011;17407;51.120;3.702;2023-11-21T11:06:51;11.32;;;3.85;;
25687;SDS011;17407;51.120;3.702;2023-11-21T11:09:21;8.82;;;3.15;;
25687;SDS011;17407;51.120;3.702;2023-11-21T11:11:47;12.00;;;3.92;;
25687;SDS011;17407;51.120;3.702;2023-11-21T11:14:14;13.23;;;3.53;;
25687;SDS011;17407;51.120;3.702;2023-11-21T11:16:40;9.73;;;3.80;;
25687;SDS011;17407;51.120;3.702;2023-11-21T11:19:09;12.98;;;4.00;;
25687;SDS011;17407;51.120;3.702;2023-11-21T11:26:56;11.90;;;3.20;;
25687;SDS011;17407;51.120;3.702;2023-11-21T11:31:58;13.45;;;2.80;;
25687;SDS011;17407;51.120;3.702;2023-11-21T11:34:34;9.50;;;2.70;;
25687;SDS011;17407;51.120;3.702;2023-11-21T11:39:42;13.75;;;3.13;;
25687;SDS011;17407;51.120;3.702;2023-11-21T11:42:14;11.75;;;3.50;;
25687;SDS011;17407;51.120;3.702;2023-11-21T11:47:29;8.00;;;2.83;;
25687;SDS011;17407;51.120;3.702;2023-11-21T11:50:11;8.23;;;2.95;;
25687;SDS011;17407;51.120;3.702;2023-11-21T11:53:11;9.90;;;2.65;;
25687;SDS011;17407;51.120;3.702;2023-11-21T11:55:38;10.35;;;2.40;;
25687;SDS011;17407;51.120;3.702;2023-11-21T11:58:05;6.25;;;2.63;;
25687;SDS011;17407;51.120;3.702;2023-11-21T12:02:58;8.07;;;2.55;;
25687;SDS011;17407;51.120;3.702;2023-11-21T12:05:27;6.05;;;2.45;;
25687;SDS011;17407;51.120;3.702;2023-11-21T12:07:57;8.80;;;2.25;;
25687;SDS011;17407;51.120;3.702;2023-11-21T12:10:26;10.00;;;2.97;;
25687;SDS011;17407;51.120;3.702;2023-11-21T12:13:14;9.57;;;2.78;;
25687;SDS011;17407;51.120;3.702;2023-11-21T12:15:39;8.85;;;2.45;;
25687;SDS011;17407;51.120;3.702;2023-11-21T12:18:06;9.10;;;2.65;;
25687;SDS011;17407;51.120;3.702;2023-11-21T12:20:32;8.60;;;2.70;;
25687;SDS011;17407;51.120;3.702;2023-11-21T12:23:03;9.32;;;2.60;;
25687;SDS011;17407;51.120;3.702;2023-11-21T12:25:30;6.38;;;2.38;;
25687;SDS011;17407;51.120;3.702;2023-11-21T12:27:58;5.50;;;2.47;;
25687;SDS011;17407;51.120;3.702;2023-11-21T12:30:25;7.22;;;3.63;;
25687;SDS011;17407;51.120;3.702;2023-11-21T12:32:56;7.65;;;3.10;;
25687;SDS011;17407;51.120;3.702;2023-11-21T12:35:31;5.47;;;2.50;;
25687;SDS011;17407;51.120;3.702;2023-11-21T12:38:01;8.48;;;2.70;;
25687;SDS011;17407;51.120;3.702;2023-11-21T12:40:28;7.78;;;2.60;;
25687;SDS011;17407;51.120;3.702;2023-11-21T12:42:58;10.90;;;2.40;;
25687;SDS011;17407;51.120;3.702;2023-11-21T12:45:26;7.03;;;2.83;;
25687;SDS011;17407;51.120;3.702;2023-11-21T12:47:57;10.00;;;2.65;;
25687;SDS011;17407;51.120;3.702;2023-11-21T12:50:28;6.28;;;2.78;;
25687;SDS011;17407;51.120;3.702;2023-11-21T12:52:59;5.57;;;3.03;;
25687;SDS011;17407;51.120;3.702;2023-11-21T12:55:29;12.23;;;3.92;;
25687;SDS011;17407;51.120;3.702;2023-11-21T12:57:56;6.25;;;3.33;;
25687;SDS011;17407;51.120;3.702;2023-11-21T13:00:33;6.22;;;2.70;;
25687;SDS011;17407;51.120;3.702;2023-11-21T13:03:02;8.80;;;2.92;;
25687;SDS011;17407;51.120;3.702;2023-11-21T13:05:33;5.03;;;2.70;;
25687;SDS011;17407;51.120;3.702;2023-11-21T13:08:03;7.72;;;2.70;;
25687;SDS011;17407;51.120;3.702;2023-11-21T13:10:32;6.28;;;3.03;;
25687;SDS011;17407;51.120;3.702;2023-11-21T13:13:01;5.78;;;2.90;;
25687;SDS011;17407;51.120;3.702;2023-11-21T13:15:30;7.38;;;2.80;;
25687;SDS011;17407;51.120;3.702;2023-11-21T13:17:57;7.25;;;3.10;;
25687;SDS011;17407;51.120;3.702;2023-11-21T13:20:24;4.80;;;2.78;;
25687;SDS011;17407;51.120;3.702;2023-11-21T13:22:51;5.45;;;2.42;;
25687;SDS011;17407;51.120;3.702;2023-11-21T13:25:26;4.97;;;2.20;;
25687;SDS011;17407;51.120;3.702;2023-11-21T13:27:53;4.50;;;2.10;;
25687;SDS011;17407;51.120;3.702;2023-11-21T13:30:22;4.13;;;2.10;;
25687;SDS011;17407;51.120;3.702;2023-11-21T13:32:55;7.38;;;2.38;;
25687;SDS011;17407;51.120;3.702;2023-11-21T13:35:27;5.15;;;2.42;;
25687;SDS011;17407;51.120;3.702;2023-11-21T13:38:18;3.00;;;2.22;;
25687;SDS011;17407;51.120;3.702;2023-11-21T13:40:48;5.85;;;2.42;;
25687;SDS011;17407;51.120;3.702;2023-11-21T13:43:18;3.28;;;2.60;;
25687;SDS011;17407;51.120;3.702;2023-11-21T13:45:51;2.40;;;2.20;;
25687;SDS011;17407;51.120;3.702;2023-11-21T13:48:27;4.53;;;2.40;;
25687;SDS011;17407;51.120;3.702;2023-11-21T13:50:59;3.35;;;2.65;;
25687;SDS011;17407;51.120;3.702;2023-11-21T13:53:46;5.85;;;2.45;;
25687;SDS011;17407;51.120;3.702;2023-11-21T13:56:15;4.95;;;2.33;;
25687;SDS011;17407;51.120;3.702;2023-11-21T13:58:46;3.20;;;2.55;;
25687;SDS011;17407;51.120;3.702;2023-11-21T14:01:16;6.80;;;2.88;;
25687;SDS011;17407;51.120;3.702;2023-11-21T14:04:11;3.35;;;2.67;;
25687;SDS011;17407;51.120;3.702;2023-11-21T14:06:40;3.47;;;2.60;;
25687;SDS011;17407;51.120;3.702;2023-11-21T14:09:13;2.92;;;2.72;;
25687;SDS011;17407;51.120;3.702;2023-11-21T14:11:53;3.40;;;3.10;;
25687;SDS011;17407;51.120;3.702;2023-11-21T14:14:22;4.65;;;3.65;;
25687;SDS011;17407;51.120;3.702;2023-11-21T14:16:50;6.68;;;3.70;;
25687;SDS011;17407;51.120;3.702;2023-11-21T14:19:16;4.00;;;3.60;;
25687;SDS011;17407;51.120;3.702;2023-11-21T14:21:45;6.95;;;4.20;;
25687;SDS011;17407;51.120;3.702;2023-11-21T14:24:13;4.50;;;4.10;;
25687;SDS011;17407;51.120;3.702;2023-11-21T14:26:42;5.10;;;4.60;;
25687;SDS011;17407;51.120;3.702;2023-11-21T14:29:10;5.43;;;4.30;;
25687;SDS011;17407;51.120;3.702;2023-11-21T14:31:39;4.43;;;4.03;;
25687;SDS011;17407;51.120;3.702;2023-11-21T14:34:05;7.65;;;4.78;;
25687;SDS011;17407;51.120;3.702;2023-11-21T14:36:32;6.18;;;4.22;;
25687;SDS011;17407;51.120;3.702;2023-11-21T14:39:04;4.10;;;3.70;;
25687;SDS011;17407;51.120;3.702;2023-11-21T14:41:48;4.88;;;3.90;;
25687;SDS011;17407;51.120;3.702;2023-11-21T14:44:14;4.10;;;3.70;;
25687;SDS011;17407;51.120;3.702;2023-11-21T14:46:40;7.18;;;3.97;;
25687;SDS011;17407;51.120;3.702;2023-11-21T14:49:10;3.55;;;3.25;;